EJU71ER LKPR-LIMC
Flight info
| Callsign | EJU71ER |
|---|---|
| Flight time | N/A |
| Altitude | 34000 |
| Route | DOBEN DCT RUDAP P31 DOSEL DCT EBEDA DCT BADVI DCT BERAS DCT OLPIX/N0410F330 DCT EKPEB DCT NAXAV DCT RENTA DCT ATPED DCT LUSIL DCT EVRIP |
| Aircraft | A20N/M-SDE2E3FGHIJ1RWXYZ/LB1G1 |
Departure
| Time | 2026-05-04 18:21 |
|---|---|
| Airport | Václav Havel Airport Prague (LKPR) |
Arrival
| Time | N/A |
|---|---|
| Airport | Milan Malpensa International Airport (LIMC) |
| Time | Latitude | Longitude | Altitude | Speed | Heading |
|---|---|---|---|---|---|
| 2026-05-04 17:59 | 50.10366 | 14.26740 | 1171 ft | 0 kts | 34° |
| 2026-05-04 18:09 | 50.10361 | 14.26734 | 1171 ft | 2 kts | 39° |
| 2026-05-04 18:09 | 50.10343 | 14.26700 | 1170 ft | 2 kts | 20° |
| 2026-05-04 18:10 | 50.10328 | 14.26700 | 1170 ft | 2 kts | 335° |
| 2026-05-04 18:10 | 50.10317 | 14.26716 | 1170 ft | 1 kts | 295° |
| 2026-05-04 18:10 | 50.10318 | 14.26716 | 1171 ft | 2 kts | 302° |
| 2026-05-04 18:10 | 50.10321 | 14.26708 | 1171 ft | 0 kts | 303° |
| 2026-05-04 18:13 | 50.10325 | 14.26701 | 1171 ft | 2 kts | 304° |
| 2026-05-04 18:13 | 50.10327 | 14.26592 | 1171 ft | 7 kts | 212° |
| 2026-05-04 18:14 | 50.10278 | 14.26541 | 1171 ft | 9 kts | 213° |
| 2026-05-04 18:14 | 50.10227 | 14.26547 | 1171 ft | 8 kts | 130° |
| 2026-05-04 18:14 | 50.10186 | 14.26626 | 1171 ft | 9 kts | 126° |
| 2026-05-04 18:15 | 50.10112 | 14.26784 | 1175 ft | 7 kts | 128° |
| 2026-05-04 18:15 | 50.10057 | 14.26894 | 1178 ft | 7 kts | 127° |
| 2026-05-04 18:15 | 50.10016 | 14.26978 | 1181 ft | 13 kts | 127° |
| 2026-05-04 18:16 | 50.09949 | 14.27117 | 1185 ft | 17 kts | 126° |
| 2026-05-04 18:16 | 50.09874 | 14.27274 | 1187 ft | 19 kts | 129° |
| 2026-05-04 18:16 | 50.09774 | 14.27436 | 1187 ft | 22 kts | 135° |
| 2026-05-04 18:17 | 50.09581 | 14.27618 | 1187 ft | 14 kts | 219° |
| 2026-05-04 18:17 | 50.09528 | 14.27553 | 1187 ft | 8 kts | 217° |
| 2026-05-04 18:17 | 50.09425 | 14.27430 | 1187 ft | 9 kts | 237° |
| 2026-05-04 18:18 | 50.09441 | 14.27354 | 1187 ft | 0 kts | 307° |
| 2026-05-04 18:20 | 50.09442 | 14.27352 | 1187 ft | 1 kts | 307° |
| 2026-05-04 18:20 | 50.09556 | 14.27113 | 1187 ft | 64 kts | 307° |
| 2026-05-04 18:20 | 50.09972 | 14.26258 | 1171 ft | 132 kts | 307° |
| 2026-05-04 18:21 | 50.10642 | 14.24877 | 1236 ft | 178 kts | 308° |
| 2026-05-04 18:21 | 50.11379 | 14.23322 | 1812 ft | 181 kts | 307° |
| 2026-05-04 18:21 | 50.12109 | 14.21754 | 2547 ft | 182 kts | 307° |
| 2026-05-04 18:21 | 50.12842 | 14.20182 | 3315 ft | 179 kts | 307° |
| 2026-05-04 18:22 | 50.13583 | 14.18593 | 3920 ft | 187 kts | 307° |
| 2026-05-04 18:22 | 50.14404 | 14.16920 | 4401 ft | 203 kts | 308° |
| 2026-05-04 18:22 | 50.15310 | 14.15123 | 4857 ft | 222 kts | 307° |
| 2026-05-04 18:22 | 50.16293 | 14.13138 | 5294 ft | 244 kts | 306° |
| 2026-05-04 18:23 | 50.17105 | 14.10741 | 5805 ft | 262 kts | 279° |
| 2026-05-04 18:23 | 50.16930 | 14.07903 | 6444 ft | 273 kts | 244° |
| 2026-05-04 18:23 | 50.15722 | 14.05693 | 7321 ft | 275 kts | 213° |
| 2026-05-04 18:23 | 50.14043 | 14.04338 | 8306 ft | 275 kts | 205° |
| 2026-05-04 18:24 | 50.12302 | 14.03113 | 9226 ft | 276 kts | 206° |
| 2026-05-04 18:24 | 50.10580 | 14.01831 | 10136 ft | 277 kts | 208° |
| 2026-05-04 18:24 | 50.08860 | 14.00464 | 10804 ft | 287 kts | 209° |
| 2026-05-04 18:24 | 50.07053 | 13.98957 | 11245 ft | 304 kts | 210° |
| 2026-05-04 18:25 | 50.05168 | 13.97342 | 11895 ft | 312 kts | 210° |
| 2026-05-04 18:25 | 50.03294 | 13.95712 | 12690 ft | 315 kts | 211° |
| 2026-05-04 18:25 | 50.01375 | 13.94028 | 13479 ft | 319 kts | 211° |
| 2026-05-04 18:25 | 49.99432 | 13.92314 | 14230 ft | 322 kts | 211° |
| 2026-05-04 18:26 | 49.97494 | 13.90602 | 14949 ft | 326 kts | 211° |
| 2026-05-04 18:26 | 49.95507 | 13.88843 | 15550 ft | 330 kts | 211° |
| 2026-05-04 18:26 | 49.93497 | 13.87062 | 15871 ft | 333 kts | 211° |
| 2026-05-04 18:26 | 49.91505 | 13.85299 | 15923 ft | 333 kts | 211° |
| 2026-05-04 18:27 | 49.89491 | 13.83515 | 15927 ft | 333 kts | 211° |
| 2026-05-04 18:27 | 49.87480 | 13.81736 | 15930 ft | 333 kts | 211° |
| 2026-05-04 18:27 | 49.85455 | 13.79946 | 15927 ft | 333 kts | 211° |
| 2026-05-04 18:27 | 49.83428 | 13.78155 | 16074 ft | 339 kts | 211° |
| 2026-05-04 18:28 | 49.81405 | 13.76370 | 16748 ft | 342 kts | 211° |
| 2026-05-04 18:28 | 49.79330 | 13.74542 | 17513 ft | 343 kts | 211° |
| 2026-05-04 18:28 | 49.77242 | 13.72706 | 18182 ft | 346 kts | 211° |
| 2026-05-04 18:28 | 49.75136 | 13.70853 | 18829 ft | 350 kts | 211° |
| 2026-05-04 18:29 | 49.73031 | 13.69003 | 19472 ft | 353 kts | 211° |
| 2026-05-04 18:29 | 49.70895 | 13.67127 | 20109 ft | 356 kts | 211° |
| 2026-05-04 18:29 | 49.68729 | 13.65227 | 20715 ft | 360 kts | 211° |
| 2026-05-04 18:29 | 49.66534 | 13.63304 | 21314 ft | 363 kts | 211° |
| 2026-05-04 18:30 | 49.62103 | 13.59427 | 22454 ft | 370 kts | 211° |
| 2026-05-04 18:30 | 49.59860 | 13.57467 | 22994 ft | 374 kts | 211° |
| 2026-05-04 18:30 | 49.57578 | 13.55475 | 23521 ft | 378 kts | 211° |
| 2026-05-04 18:31 | 49.55304 | 13.53494 | 24061 ft | 381 kts | 211° |
| 2026-05-04 18:31 | 49.52988 | 13.51480 | 24611 ft | 384 kts | 211° |
| 2026-05-04 18:31 | 49.50678 | 13.49472 | 25139 ft | 386 kts | 211° |
| 2026-05-04 18:31 | 49.48334 | 13.47437 | 25647 ft | 389 kts | 211° |
| 2026-05-04 18:32 | 49.45966 | 13.45382 | 26139 ft | 391 kts | 211° |
| 2026-05-04 18:32 | 49.43595 | 13.43328 | 26607 ft | 394 kts | 211° |
| 2026-05-04 18:32 | 49.41193 | 13.41249 | 27073 ft | 397 kts | 211° |
| 2026-05-04 18:32 | 49.38807 | 13.39187 | 27528 ft | 399 kts | 211° |
| 2026-05-04 18:33 | 49.36378 | 13.37088 | 27969 ft | 401 kts | 211° |
| 2026-05-04 18:33 | 49.33910 | 13.34960 | 28389 ft | 404 kts | 211° |
| 2026-05-04 18:33 | 49.31455 | 13.32845 | 28800 ft | 407 kts | 210° |
| 2026-05-04 18:33 | 49.28982 | 13.30718 | 29343 ft | 406 kts | 211° |
| 2026-05-04 18:34 | 49.26517 | 13.28600 | 29912 ft | 404 kts | 210° |
| 2026-05-04 18:34 | 49.24058 | 13.26524 | 30449 ft | 403 kts | 209° |
| 2026-05-04 18:34 | 49.21579 | 13.24633 | 30979 ft | 402 kts | 207° |
| 2026-05-04 18:34 | 49.19052 | 13.22733 | 31528 ft | 400 kts | 207° |
| 2026-05-04 18:35 | 49.16573 | 13.20868 | 32046 ft | 397 kts | 207° |
| 2026-05-04 18:35 | 49.14095 | 13.19010 | 32519 ft | 396 kts | 207° |
| 2026-05-04 18:35 | 49.11601 | 13.17140 | 32898 ft | 397 kts | 207° |
| 2026-05-04 18:35 | 49.09130 | 13.15294 | 33232 ft | 398 kts | 207° |
| 2026-05-04 18:36 | 49.06627 | 13.13428 | 33565 ft | 399 kts | 207° |
| 2026-05-04 18:36 | 49.04158 | 13.11587 | 33867 ft | 400 kts | 207° |
| 2026-05-04 18:36 | 49.01646 | 13.09718 | 33918 ft | 402 kts | 207° |
| 2026-05-04 18:37 | 48.96605 | 13.05977 | 33914 ft | 402 kts | 207° |
| 2026-05-04 18:37 | 48.91555 | 13.02238 | 33917 ft | 402 kts | 207° |
| 2026-05-04 18:38 | 48.86498 | 12.98503 | 33925 ft | 401 kts | 207° |
| 2026-05-04 18:38 | 48.81411 | 12.94755 | 33916 ft | 402 kts | 207° |
| 2026-05-04 18:39 | 48.76447 | 12.90872 | 33917 ft | 401 kts | 211° |
| 2026-05-04 18:39 | 48.71780 | 12.86210 | 33911 ft | 400 kts | 217° |
| 2026-05-04 18:40 | 48.67518 | 12.80812 | 33908 ft | 400 kts | 223° |
| 2026-05-04 18:40 | 48.63404 | 12.75113 | 33906 ft | 401 kts | 223° |
| 2026-05-04 18:41 | 48.59259 | 12.69377 | 33892 ft | 402 kts | 223° |
| 2026-05-04 18:41 | 48.55134 | 12.63649 | 33899 ft | 402 kts | 223° |
| 2026-05-04 18:42 | 48.50995 | 12.57914 | 33899 ft | 402 kts | 223° |
| 2026-05-04 18:42 | 48.46881 | 12.52233 | 33905 ft | 402 kts | 223° |
| 2026-05-04 18:43 | 48.42718 | 12.46609 | 33902 ft | 402 kts | 220° |
| 2026-05-04 18:43 | 48.38457 | 12.41157 | 33903 ft | 402 kts | 220° |
| 2026-05-04 18:44 | 48.34209 | 12.35735 | 33900 ft | 401 kts | 220° |
| 2026-05-04 18:44 | 48.29909 | 12.30263 | 33905 ft | 402 kts | 220° |
| 2026-05-04 18:45 | 48.25608 | 12.24804 | 33907 ft | 403 kts | 220° |
| 2026-05-04 18:45 | 48.21247 | 12.19351 | 33913 ft | 403 kts | 217° |
| 2026-05-04 18:46 | 48.16600 | 12.14709 | 33910 ft | 403 kts | 209° |
| 2026-05-04 18:46 | 48.11520 | 12.11069 | 33911 ft | 403 kts | 201° |
| 2026-05-04 18:47 | 48.06142 | 12.08478 | 33902 ft | 403 kts | 196° |
| 2026-05-04 18:47 | 48.00722 | 12.06175 | 33905 ft | 403 kts | 196° |
| 2026-05-04 18:48 | 47.95254 | 12.03857 | 33907 ft | 402 kts | 196° |
| 2026-05-04 18:48 | 47.89902 | 12.01592 | 33912 ft | 403 kts | 196° |
| 2026-05-04 18:49 | 47.84473 | 11.99299 | 33938 ft | 404 kts | 196° |
| 2026-05-04 18:49 | 47.79036 | 11.97007 | 33967 ft | 403 kts | 196° |
| 2026-05-04 18:50 | 47.73616 | 11.94726 | 33987 ft | 404 kts | 197° |
| 2026-05-04 18:50 | 47.68293 | 11.92269 | 33993 ft | 403 kts | 199° |
| 2026-05-04 18:51 | 47.62950 | 11.89699 | 34004 ft | 403 kts | 199° |
| 2026-05-04 18:51 | 47.57601 | 11.87151 | 34004 ft | 403 kts | 198° |
| 2026-05-04 18:52 | 47.52260 | 11.84625 | 34034 ft | 403 kts | 199° |
| 2026-05-04 18:52 | 47.46952 | 11.82122 | 34052 ft | 402 kts | 199° |
| 2026-05-04 18:53 | 47.41612 | 11.79610 | 34067 ft | 403 kts | 199° |
| 2026-05-04 18:53 | 47.36263 | 11.77270 | 34069 ft | 403 kts | 195° |
| 2026-05-04 18:54 | 47.30737 | 11.75732 | 34067 ft | 404 kts | 190° |
| 2026-05-04 18:54 | 47.25166 | 11.74437 | 34076 ft | 404 kts | 191° |
| 2026-05-04 18:55 | 47.19631 | 11.73150 | 34086 ft | 405 kts | 191° |
| 2026-05-04 18:55 | 47.11311 | 11.71223 | 34096 ft | 405 kts | 191° |
| 2026-05-04 18:56 | 47.05785 | 11.69845 | 34108 ft | 404 kts | 194° |
| 2026-05-04 18:56 | 47.00352 | 11.67665 | 34116 ft | 403 kts | 200° |
| 2026-05-04 18:57 | 46.95181 | 11.64618 | 34120 ft | 401 kts | 206° |
| 2026-05-04 18:57 | 46.90106 | 11.61218 | 34110 ft | 401 kts | 206° |
| 2026-05-04 18:58 | 46.85020 | 11.57823 | 34110 ft | 402 kts | 206° |
| 2026-05-04 18:58 | 46.79887 | 11.54401 | 34120 ft | 403 kts | 206° |
| 2026-05-04 18:59 | 46.74794 | 11.51012 | 34116 ft | 403 kts | 206° |
| 2026-05-04 18:59 | 46.69697 | 11.47627 | 34110 ft | 403 kts | 206° |
| 2026-05-04 19:00 | 46.64583 | 11.44233 | 34112 ft | 402 kts | 206° |
| 2026-05-04 19:00 | 46.59476 | 11.40847 | 34119 ft | 402 kts | 206° |
| 2026-05-04 19:01 | 46.54382 | 11.37483 | 34098 ft | 401 kts | 207° |
| 2026-05-04 19:01 | 46.49582 | 11.33369 | 34070 ft | 399 kts | 219° |
| 2026-05-04 19:02 | 46.45562 | 11.27763 | 34060 ft | 398 kts | 231° |
| 2026-05-04 19:02 | 46.42539 | 11.21010 | 34057 ft | 398 kts | 243° |
| 2026-05-04 19:03 | 46.40064 | 11.13840 | 34085 ft | 398 kts | 244° |
| 2026-05-04 19:03 | 46.37615 | 11.06708 | 34105 ft | 397 kts | 243° |
| 2026-05-04 19:04 | 46.35137 | 10.99532 | 34113 ft | 397 kts | 243° |
| 2026-05-04 19:04 | 46.32674 | 10.92432 | 34121 ft | 396 kts | 243° |
| 2026-05-04 19:05 | 46.30205 | 10.85329 | 34120 ft | 396 kts | 243° |
| 2026-05-04 19:05 | 46.28967 | 10.81761 | 33974 ft | 397 kts | 243° |
| 2026-05-04 19:05 | 46.27726 | 10.78185 | 33655 ft | 395 kts | 243° |
| 2026-05-04 19:06 | 46.26495 | 10.74638 | 33268 ft | 392 kts | 243° |
| 2026-05-04 19:06 | 46.25277 | 10.71138 | 32738 ft | 392 kts | 243° |
| 2026-05-04 19:06 | 46.24043 | 10.67592 | 32101 ft | 394 kts | 243° |
| 2026-05-04 19:06 | 46.22808 | 10.64057 | 31444 ft | 396 kts | 243° |
| 2026-05-04 19:07 | 46.21556 | 10.60474 | 30721 ft | 399 kts | 243° |
| 2026-05-04 19:07 | 46.20305 | 10.56906 | 30004 ft | 402 kts | 242° |
| 2026-05-04 19:07 | 46.19036 | 10.53292 | 29315 ft | 403 kts | 242° |
| 2026-05-04 19:07 | 46.17773 | 10.49705 | 28666 ft | 403 kts | 243° |
| 2026-05-04 19:08 | 46.16499 | 10.46084 | 28110 ft | 400 kts | 243° |
| 2026-05-04 19:08 | 46.15243 | 10.42515 | 27666 ft | 395 kts | 243° |
| 2026-05-04 19:08 | 46.14014 | 10.39025 | 27242 ft | 390 kts | 243° |
| 2026-05-04 19:08 | 46.12780 | 10.35525 | 26806 ft | 386 kts | 243° |
| 2026-05-04 19:09 | 46.11569 | 10.32098 | 26366 ft | 382 kts | 242° |
| 2026-05-04 19:09 | 46.10366 | 10.28702 | 25908 ft | 379 kts | 242° |
| 2026-05-04 19:09 | 46.09156 | 10.25286 | 25456 ft | 376 kts | 242° |
| 2026-05-04 19:09 | 46.07970 | 10.21945 | 25015 ft | 373 kts | 242° |
| 2026-05-04 19:10 | 46.06791 | 10.18629 | 24570 ft | 370 kts | 242° |
| 2026-05-04 19:10 | 46.05618 | 10.15336 | 24131 ft | 367 kts | 242° |
| 2026-05-04 19:10 | 46.04457 | 10.12077 | 23688 ft | 365 kts | 242° |
| 2026-05-04 19:10 | 46.03331 | 10.08812 | 23251 ft | 363 kts | 244° |
| 2026-05-04 19:11 | 46.02246 | 10.05565 | 22811 ft | 361 kts | 244° |
| 2026-05-04 19:11 | 46.01162 | 10.02309 | 22363 ft | 359 kts | 244° |
| 2026-05-04 19:11 | 46.00090 | 9.99106 | 21926 ft | 357 kts | 244° |
| 2026-05-04 19:11 | 45.99010 | 9.95886 | 21489 ft | 355 kts | 244° |
| 2026-05-04 19:12 | 45.97940 | 9.92704 | 21050 ft | 353 kts | 244° |
| 2026-05-04 19:12 | 45.95824 | 9.86438 | 20203 ft | 348 kts | 244° |
| 2026-05-04 19:12 | 45.94763 | 9.83304 | 19772 ft | 346 kts | 243° |
| 2026-05-04 19:13 | 45.93714 | 9.80206 | 19342 ft | 344 kts | 243° |
| 2026-05-04 19:13 | 45.92665 | 9.77115 | 18889 ft | 342 kts | 243° |
| 2026-05-04 19:13 | 45.91639 | 9.74096 | 18466 ft | 340 kts | 243° |
| 2026-05-04 19:13 | 45.90606 | 9.71059 | 18027 ft | 339 kts | 243° |
| 2026-05-04 19:14 | 45.89570 | 9.68013 | 17599 ft | 337 kts | 243° |
| 2026-05-04 19:14 | 45.88521 | 9.64936 | 17157 ft | 336 kts | 243° |
| 2026-05-04 19:14 | 45.87508 | 9.61970 | 16733 ft | 335 kts | 243° |
| 2026-05-04 19:14 | 45.86484 | 9.58972 | 16283 ft | 334 kts | 243° |
| 2026-05-04 19:15 | 45.85455 | 9.55963 | 15850 ft | 332 kts | 243° |
| 2026-05-04 19:15 | 45.84393 | 9.53083 | 15498 ft | 328 kts | 234° |
| 2026-05-04 19:15 | 45.82753 | 9.50816 | 15250 ft | 326 kts | 217° |
| 2026-05-04 19:15 | 45.80910 | 9.48944 | 15002 ft | 325 kts | 215° |
| 2026-05-04 19:16 | 45.79061 | 9.47095 | 14743 ft | 324 kts | 215° |
| 2026-05-04 19:16 | 45.77210 | 9.45210 | 14349 ft | 325 kts | 216° |
| 2026-05-04 19:16 | 45.75411 | 9.43346 | 14079 ft | 321 kts | 216° |
| 2026-05-04 19:16 | 45.73602 | 9.41451 | 13831 ft | 321 kts | 216° |
| 2026-05-04 19:17 | 45.71823 | 9.39576 | 13583 ft | 320 kts | 216° |
| 2026-05-04 19:17 | 45.70027 | 9.37674 | 13326 ft | 319 kts | 216° |
| 2026-05-04 19:17 | 45.68227 | 9.35765 | 13079 ft | 319 kts | 216° |
| 2026-05-04 19:17 | 45.66442 | 9.33870 | 12826 ft | 318 kts | 216° |
| 2026-05-04 19:18 | 45.64650 | 9.31967 | 12568 ft | 317 kts | 216° |
| 2026-05-04 19:18 | 45.62846 | 9.30052 | 12320 ft | 317 kts | 216° |
| 2026-05-04 19:18 | 45.61034 | 9.28128 | 12073 ft | 316 kts | 215° |
| 2026-05-04 19:18 | 45.59273 | 9.26259 | 11819 ft | 315 kts | 215° |
| 2026-05-04 19:19 | 45.57501 | 9.24380 | 11396 ft | 316 kts | 215° |
| 2026-05-04 19:19 | 45.55714 | 9.22485 | 10623 ft | 325 kts | 214° |
| 2026-05-04 19:19 | 45.53900 | 9.20564 | 10270 ft | 318 kts | 214° |
| 2026-05-04 19:19 | 45.52160 | 9.18721 | 10129 ft | 305 kts | 214° |
| 2026-05-04 19:20 | 45.50481 | 9.16946 | 9917 ft | 295 kts | 214° |
| 2026-05-04 19:20 | 45.48833 | 9.15206 | 9632 ft | 289 kts | 214° |
| 2026-05-04 19:20 | 45.47233 | 9.13551 | 9343 ft | 282 kts | 210° |
| 2026-05-04 19:20 | 45.45445 | 9.12561 | 9212 ft | 273 kts | 189° |
| 2026-05-04 19:21 | 45.43564 | 9.12126 | 9089 ft | 272 kts | 186° |
| 2026-05-04 19:21 | 45.41700 | 9.11756 | 8959 ft | 272 kts | 186° |
| 2026-05-04 19:21 | 45.39820 | 9.11352 | 8831 ft | 272 kts | 188° |
| 2026-05-04 19:21 | 45.38006 | 9.10510 | 8699 ft | 275 kts | 207° |
| 2026-05-04 19:22 | 45.36397 | 9.09024 | 8599 ft | 276 kts | 213° |
| 2026-05-04 19:22 | 45.34832 | 9.07443 | 8494 ft | 277 kts | 213° |
| 2026-05-04 19:22 | 45.33257 | 9.05883 | 8371 ft | 277 kts | 212° |
| 2026-05-04 19:22 | 45.31661 | 9.04348 | 8224 ft | 276 kts | 211° |
| 2026-05-04 19:23 | 45.30052 | 9.02836 | 8135 ft | 276 kts | 212° |